sensor_id;sensor_type;location;lat;lon;timestamp;P1;durP1;ratioP1;P2;durP2;ratioP2
22268;SDS011;11303;50.772;19.670;2023-01-08T00:01:29;452.42;;;71.30;;
22268;SDS011;11303;50.772;19.670;2023-01-08T00:03:30;503.60;;;81.53;;
22268;SDS011;11303;50.772;19.670;2023-01-08T00:05:32;473.90;;;81.28;;
22268;SDS011;11303;50.772;19.670;2023-01-08T00:07:34;444.35;;;85.45;;
22268;SDS011;11303;50.772;19.670;2023-01-08T00:09:35;431.75;;;83.70;;
22268;SDS011;11303;50.772;19.670;2023-01-08T00:11:37;413.38;;;92.53;;
22268;SDS011;11303;50.772;19.670;2023-01-08T00:13:39;433.80;;;89.05;;
22268;SDS011;11303;50.772;19.670;2023-01-08T00:15:41;445.52;;;72.18;;
22268;SDS011;11303;50.772;19.670;2023-01-08T00:17:42;554.42;;;87.55;;
22268;SDS011;11303;50.772;19.670;2023-01-08T00:19:44;313.23;;;56.58;;
22268;SDS011;11303;50.772;19.670;2023-01-08T00:21:45;422.77;;;63.97;;
22268;SDS011;11303;50.772;19.670;2023-01-08T00:23:47;461.50;;;73.13;;
22268;SDS011;11303;50.772;19.670;2023-01-08T00:25:49;520.53;;;84.88;;
22268;SDS011;11303;50.772;19.670;2023-01-08T00:27:51;518.83;;;82.47;;
22268;SDS011;11303;50.772;19.670;2023-01-08T00:29:52;374.20;;;69.72;;
22268;SDS011;11303;50.772;19.670;2023-01-08T00:31:54;574.30;;;89.88;;
22268;SDS011;11303;50.772;19.670;2023-01-08T00:33:55;472.95;;;83.03;;
22268;SDS011;11303;50.772;19.670;2023-01-08T00:35:57;406.70;;;74.45;;
22268;SDS011;11303;50.772;19.670;2023-01-08T00:37:59;476.65;;;91.40;;
22268;SDS011;11303;50.772;19.670;2023-01-08T00:40:00;471.05;;;101.65;;
22268;SDS011;11303;50.772;19.670;2023-01-08T00:42:02;719.40;;;131.07;;
22268;SDS011;11303;50.772;19.670;2023-01-08T00:44:03;579.65;;;101.07;;
22268;SDS011;11303;50.772;19.670;2023-01-08T00:46:05;424.08;;;64.40;;
22268;SDS011;11303;50.772;19.670;2023-01-08T00:48:07;605.70;;;80.40;;
22268;SDS011;11303;50.772;19.670;2023-01-08T00:50:09;528.67;;;75.53;;
22268;SDS011;11303;50.772;19.670;2023-01-08T00:52:11;465.55;;;76.20;;
22268;SDS011;11303;50.772;19.670;2023-01-08T00:54:13;682.40;;;99.95;;
22268;SDS011;11303;50.772;19.670;2023-01-08T00:56:14;536.63;;;101.30;;
22268;SDS011;11303;50.772;19.670;2023-01-08T00:58:16;474.27;;;95.72;;
22268;SDS011;11303;50.772;19.670;2023-01-08T01:00:18;460.52;;;71.22;;
22268;SDS011;11303;50.772;19.670;2023-01-08T01:02:19;353.02;;;68.05;;
22268;SDS011;11303;50.772;19.670;2023-01-08T01:04:21;328.73;;;68.15;;
22268;SDS011;11303;50.772;19.670;2023-01-08T01:06:23;366.90;;;71.20;;
22268;SDS011;11303;50.772;19.670;2023-01-08T01:08:24;379.10;;;77.13;;
22268;SDS011;11303;50.772;19.670;2023-01-08T01:10:26;318.02;;;62.80;;
22268;SDS011;11303;50.772;19.670;2023-01-08T01:12:27;398.48;;;88.43;;
22268;SDS011;11303;50.772;19.670;2023-01-08T01:14:29;353.17;;;78.85;;
22268;SDS011;11303;50.772;19.670;2023-01-08T01:16:30;346.08;;;72.50;;
22268;SDS011;11303;50.772;19.670;2023-01-08T01:18:32;381.80;;;83.45;;
22268;SDS011;11303;50.772;19.670;2023-01-08T01:20:34;327.85;;;81.63;;
22268;SDS011;11303;50.772;19.670;2023-01-08T01:22:35;307.30;;;70.05;;
22268;SDS011;11303;50.772;19.670;2023-01-08T01:24:38;307.75;;;72.60;;
22268;SDS011;11303;50.772;19.670;2023-01-08T01:26:40;315.98;;;70.10;;
22268;SDS011;11303;50.772;19.670;2023-01-08T01:28:42;323.83;;;75.65;;
22268;SDS011;11303;50.772;19.670;2023-01-08T01:30:43;312.88;;;70.60;;
22268;SDS011;11303;50.772;19.670;2023-01-08T01:32:45;312.17;;;74.45;;
22268;SDS011;11303;50.772;19.670;2023-01-08T01:34:47;341.67;;;89.07;;
22268;SDS011;11303;50.772;19.670;2023-01-08T01:36:48;267.38;;;64.53;;
22268;SDS011;11303;50.772;19.670;2023-01-08T01:38:50;270.50;;;66.07;;
22268;SDS011;11303;50.772;19.670;2023-01-08T01:40:54;316.80;;;87.93;;
22268;SDS011;11303;50.772;19.670;2023-01-08T01:42:56;312.80;;;77.22;;
22268;SDS011;11303;50.772;19.670;2023-01-08T01:44:57;295.45;;;70.72;;
22268;SDS011;11303;50.772;19.670;2023-01-08T01:47:00;291.83;;;69.68;;
22268;SDS011;11303;50.772;19.670;2023-01-08T01:49:09;303.52;;;75.82;;
22268;SDS011;11303;50.772;19.670;2023-01-08T01:51:13;278.98;;;70.30;;
22268;SDS011;11303;50.772;19.670;2023-01-08T01:55:26;361.17;;;95.78;;
22268;SDS011;11303;50.772;19.670;2023-01-08T01:57:28;359.48;;;98.07;;
22268;SDS011;11303;50.772;19.670;2023-01-08T01:59:31;282.30;;;70.50;;
22268;SDS011;11303;50.772;19.670;2023-01-08T02:01:32;238.15;;;57.88;;
22268;SDS011;11303;50.772;19.670;2023-01-08T02:03:36;321.42;;;89.72;;
22268;SDS011;11303;50.772;19.670;2023-01-08T02:06:26;297.50;;;77.25;;
22268;SDS011;11303;50.772;19.670;2023-01-08T02:08:30;237.30;;;56.70;;
22268;SDS011;11303;50.772;19.670;2023-01-08T02:10:52;254.52;;;66.43;;
22268;SDS011;11303;50.772;19.670;2023-01-08T02:13:07;275.85;;;70.78;;
22268;SDS011;11303;50.772;19.670;2023-01-08T02:15:22;273.42;;;71.90;;
22268;SDS011;11303;50.772;19.670;2023-01-08T02:17:38;232.88;;;56.90;;
22268;SDS011;11303;50.772;19.670;2023-01-08T02:19:48;240.63;;;60.75;;
22268;SDS011;11303;50.772;19.670;2023-01-08T02:22:43;260.15;;;67.28;;
22268;SDS011;11303;50.772;19.670;2023-01-08T02:29:17;253.88;;;74.07;;
22268;SDS011;11303;50.772;19.670;2023-01-08T02:31:22;239.32;;;62.42;;
22268;SDS011;11303;50.772;19.670;2023-01-08T02:33:26;257.75;;;71.85;;
22268;SDS011;11303;50.772;19.670;2023-01-08T02:35:36;279.42;;;72.68;;
22268;SDS011;11303;50.772;19.670;2023-01-08T02:37:41;277.40;;;78.45;;
22268;SDS011;11303;50.772;19.670;2023-01-08T02:42:08;250.70;;;69.53;;
22268;SDS011;11303;50.772;19.670;2023-01-08T02:44:17;285.25;;;79.32;;
22268;SDS011;11303;50.772;19.670;2023-01-08T02:46:24;255.90;;;69.95;;
22268;SDS011;11303;50.772;19.670;2023-01-08T02:48:46;262.33;;;73.15;;
22268;SDS011;11303;50.772;19.670;2023-01-08T02:55:21;218.32;;;60.15;;
22268;SDS011;11303;50.772;19.670;2023-01-08T02:57:25;225.32;;;63.58;;
22268;SDS011;11303;50.772;19.670;2023-01-08T02:59:29;267.02;;;70.47;;
22268;SDS011;11303;50.772;19.670;2023-01-08T03:01:32;237.35;;;67.68;;
22268;SDS011;11303;50.772;19.670;2023-01-08T03:03:35;246.98;;;64.22;;
22268;SDS011;11303;50.772;19.670;2023-01-08T03:05:39;241.02;;;66.40;;
22268;SDS011;11303;50.772;19.670;2023-01-08T03:07:43;234.63;;;66.50;;
22268;SDS011;11303;50.772;19.670;2023-01-08T03:09:45;226.43;;;64.53;;
22268;SDS011;11303;50.772;19.670;2023-01-08T03:14:03;277.10;;;78.95;;
22268;SDS011;11303;50.772;19.670;2023-01-08T03:16:20;279.73;;;83.82;;
22268;SDS011;11303;50.772;19.670;2023-01-08T03:18:28;244.93;;;70.88;;
22268;SDS011;11303;50.772;19.670;2023-01-08T03:20:34;238.10;;;70.93;;
22268;SDS011;11303;50.772;19.670;2023-01-08T03:22:38;221.57;;;65.95;;
22268;SDS011;11303;50.772;19.670;2023-01-08T03:24:42;225.30;;;62.92;;
22268;SDS011;11303;50.772;19.670;2023-01-08T03:26:46;207.98;;;59.20;;
22268;SDS011;11303;50.772;19.670;2023-01-08T03:28:52;218.27;;;62.42;;
22268;SDS011;11303;50.772;19.670;2023-01-08T03:30:55;204.00;;;58.75;;
22268;SDS011;11303;50.772;19.670;2023-01-08T03:32:59;204.20;;;59.50;;
22268;SDS011;11303;50.772;19.670;2023-01-08T03:35:02;217.43;;;62.03;;
22268;SDS011;11303;50.772;19.670;2023-01-08T03:37:07;211.52;;;62.08;;
22268;SDS011;11303;50.772;19.670;2023-01-08T03:39:15;214.30;;;62.95;;
22268;SDS011;11303;50.772;19.670;2023-01-08T03:41:24;222.10;;;62.80;;
22268;SDS011;11303;50.772;19.670;2023-01-08T03:43:29;243.88;;;69.78;;
22268;SDS011;11303;50.772;19.670;2023-01-08T03:45:31;255.13;;;75.03;;
22268;SDS011;11303;50.772;19.670;2023-01-08T03:47:33;235.15;;;72.13;;
22268;SDS011;11303;50.772;19.670;2023-01-08T03:49:37;234.55;;;65.25;;
22268;SDS011;11303;50.772;19.670;2023-01-08T03:51:40;205.05;;;61.92;;
22268;SDS011;11303;50.772;19.670;2023-01-08T03:53:45;220.18;;;60.38;;
22268;SDS011;11303;50.772;19.670;2023-01-08T03:55:47;239.70;;;70.50;;
22268;SDS011;11303;50.772;19.670;2023-01-08T03:57:49;219.20;;;60.97;;
22268;SDS011;11303;50.772;19.670;2023-01-08T03:59:51;219.80;;;61.22;;
22268;SDS011;11303;50.772;19.670;2023-01-08T04:01:52;218.07;;;64.22;;
22268;SDS011;11303;50.772;19.670;2023-01-08T04:03:54;204.15;;;59.28;;
22268;SDS011;11303;50.772;19.670;2023-01-08T04:05:57;198.88;;;55.42;;
22268;SDS011;11303;50.772;19.670;2023-01-08T04:07:59;201.93;;;57.83;;
22268;SDS011;11303;50.772;19.670;2023-01-08T04:10:01;219.20;;;60.63;;
22268;SDS011;11303;50.772;19.670;2023-01-08T04:12:03;202.23;;;56.70;;
22268;SDS011;11303;50.772;19.670;2023-01-08T04:14:05;213.38;;;60.05;;
22268;SDS011;11303;50.772;19.670;2023-01-08T04:16:06;209.43;;;53.90;;
22268;SDS011;11303;50.772;19.670;2023-01-08T04:18:08;196.95;;;58.67;;
22268;SDS011;11303;50.772;19.670;2023-01-08T04:20:10;208.50;;;59.80;;
22268;SDS011;11303;50.772;19.670;2023-01-08T04:22:11;208.00;;;60.17;;
22268;SDS011;11303;50.772;19.670;2023-01-08T04:24:13;200.30;;;55.05;;
22268;SDS011;11303;50.772;19.670;2023-01-08T04:26:15;203.10;;;55.47;;
22268;SDS011;11303;50.772;19.670;2023-01-08T04:28:16;214.95;;;58.88;;
22268;SDS011;11303;50.772;19.670;2023-01-08T04:30:18;196.05;;;61.33;;
22268;SDS011;11303;50.772;19.670;2023-01-08T04:32:20;206.63;;;54.40;;
22268;SDS011;11303;50.772;19.670;2023-01-08T04:34:21;187.00;;;51.90;;
22268;SDS011;11303;50.772;19.670;2023-01-08T04:36:23;201.77;;;54.70;;
22268;SDS011;11303;50.772;19.670;2023-01-08T04:38:25;170.90;;;50.72;;
22268;SDS011;11303;50.772;19.670;2023-01-08T04:40:26;174.00;;;48.33;;
22268;SDS011;11303;50.772;19.670;2023-01-08T04:42:28;178.73;;;50.42;;
22268;SDS011;11303;50.772;19.670;2023-01-08T04:44:29;206.70;;;57.83;;
22268;SDS011;11303;50.772;19.670;2023-01-08T04:46:31;188.30;;;50.70;;
22268;SDS011;11303;50.772;19.670;2023-01-08T04:48:33;188.25;;;53.58;;
22268;SDS011;11303;50.772;19.670;2023-01-08T04:50:35;202.10;;;54.97;;
22268;SDS011;11303;50.772;19.670;2023-01-08T04:52:36;152.73;;;45.47;;
22268;SDS011;11303;50.772;19.670;2023-01-08T04:54:38;143.35;;;39.40;;
22268;SDS011;11303;50.772;19.670;2023-01-08T04:56:39;172.18;;;44.13;;
22268;SDS011;11303;50.772;19.670;2023-01-08T04:58:41;131.48;;;38.55;;
22268;SDS011;11303;50.772;19.670;2023-01-08T05:00:42;184.32;;;49.28;;
22268;SDS011;11303;50.772;19.670;2023-01-08T05:02:44;181.50;;;49.47;;
22268;SDS011;11303;50.772;19.670;2023-01-08T05:04:46;220.18;;;63.50;;
22268;SDS011;11303;50.772;19.670;2023-01-08T05:06:48;200.77;;;59.90;;
22268;SDS011;11303;50.772;19.670;2023-01-08T05:08:50;226.77;;;63.40;;
22268;SDS011;11303;50.772;19.670;2023-01-08T05:10:51;226.13;;;63.55;;
22268;SDS011;11303;50.772;19.670;2023-01-08T05:12:56;233.23;;;59.67;;
22268;SDS011;11303;50.772;19.670;2023-01-08T05:14:59;232.95;;;62.20;;
22268;SDS011;11303;50.772;19.670;2023-01-08T05:17:01;195.13;;;53.13;;
22268;SDS011;11303;50.772;19.670;2023-01-08T05:19:03;233.75;;;57.70;;
22268;SDS011;11303;50.772;19.670;2023-01-08T05:21:04;214.13;;;53.97;;
22268;SDS011;11303;50.772;19.670;2023-01-08T05:23:06;202.98;;;52.10;;
22268;SDS011;11303;50.772;19.670;2023-01-08T05:25:07;223.95;;;56.10;;
22268;SDS011;11303;50.772;19.670;2023-01-08T05:27:09;218.13;;;54.35;;
22268;SDS011;11303;50.772;19.670;2023-01-08T05:29:11;190.02;;;50.30;;
22268;SDS011;11303;50.772;19.670;2023-01-08T05:31:13;149.73;;;37.65;;
22268;SDS011;11303;50.772;19.670;2023-01-08T05:33:15;142.43;;;35.60;;
22268;SDS011;11303;50.772;19.670;2023-01-08T05:35:17;141.43;;;39.25;;
22268;SDS011;11303;50.772;19.670;2023-01-08T05:37:18;159.65;;;42.75;;
22268;SDS011;11303;50.772;19.670;2023-01-08T05:39:20;188.93;;;47.47;;
22268;SDS011;11303;50.772;19.670;2023-01-08T05:41:22;212.77;;;50.88;;
22268;SDS011;11303;50.772;19.670;2023-01-08T05:43:23;172.00;;;42.17;;
22268;SDS011;11303;50.772;19.670;2023-01-08T05:45:25;172.10;;;39.03;;
22268;SDS011;11303;50.772;19.670;2023-01-08T05:47:30;200.55;;;47.20;;
22268;SDS011;11303;50.772;19.670;2023-01-08T05:49:32;197.07;;;44.80;;
22268;SDS011;11303;50.772;19.670;2023-01-08T05:51:34;187.60;;;41.65;;
22268;SDS011;11303;50.772;19.670;2023-01-08T05:53:35;147.63;;;36.58;;
22268;SDS011;11303;50.772;19.670;2023-01-08T05:55:37;153.55;;;34.95;;
22268;SDS011;11303;50.772;19.670;2023-01-08T05:57:39;202.23;;;48.78;;
22268;SDS011;11303;50.772;19.670;2023-01-08T05:59:40;240.23;;;52.08;;
22268;SDS011;11303;50.772;19.670;2023-01-08T06:01:42;235.98;;;49.83;;
22268;SDS011;11303;50.772;19.670;2023-01-08T06:03:43;263.60;;;55.53;;
22268;SDS011;11303;50.772;19.670;2023-01-08T06:05:45;220.80;;;43.03;;
22268;SDS011;11303;50.772;19.670;2023-01-08T06:07:46;220.23;;;45.58;;
22268;SDS011;11303;50.772;19.670;2023-01-08T06:09:48;200.27;;;44.30;;
22268;SDS011;11303;50.772;19.670;2023-01-08T06:11:49;181.88;;;37.58;;
22268;SDS011;11303;50.772;19.670;2023-01-08T06:13:53;225.45;;;45.47;;
22268;SDS011;11303;50.772;19.670;2023-01-08T06:15:56;181.93;;;39.92;;
22268;SDS011;11303;50.772;19.670;2023-01-08T06:18:03;235.68;;;46.92;;
22268;SDS011;11303;50.772;19.670;2023-01-08T06:20:05;217.80;;;45.53;;
22268;SDS011;11303;50.772;19.670;2023-01-08T06:22:06;199.00;;;38.13;;
22268;SDS011;11303;50.772;19.670;2023-01-08T06:24:08;218.82;;;42.17;;
22268;SDS011;11303;50.772;19.670;2023-01-08T06:26:09;203.82;;;39.75;;
22268;SDS011;11303;50.772;19.670;2023-01-08T06:28:11;192.65;;;40.30;;
22268;SDS011;11303;50.772;19.670;2023-01-08T06:30:13;193.40;;;37.17;;
22268;SDS011;11303;50.772;19.670;2023-01-08T06:32:14;130.75;;;32.00;;
22268;SDS011;11303;50.772;19.670;2023-01-08T06:34:16;233.65;;;46.25;;
22268;SDS011;11303;50.772;19.670;2023-01-08T06:36:17;217.75;;;42.40;;
22268;SDS011;11303;50.772;19.670;2023-01-08T06:38:19;198.27;;;38.25;;
22268;SDS011;11303;50.772;19.670;2023-01-08T06:40:21;200.95;;;37.03;;
22268;SDS011;11303;50.772;19.670;2023-01-08T06:42:23;127.50;;;27.75;;
22268;SDS011;11303;50.772;19.670;2023-01-08T06:44:25;185.25;;;36.15;;
22268;SDS011;11303;50.772;19.670;2023-01-08T06:46:27;191.80;;;36.72;;
22268;SDS011;11303;50.772;19.670;2023-01-08T06:48:28;218.25;;;42.63;;
22268;SDS011;11303;50.772;19.670;2023-01-08T06:50:30;259.90;;;50.38;;
22268;SDS011;11303;50.772;19.670;2023-01-08T06:52:32;258.02;;;47.97;;
22268;SDS011;11303;50.772;19.670;2023-01-08T06:54:34;192.80;;;41.47;;
22268;SDS011;11303;50.772;19.670;2023-01-08T06:56:35;247.35;;;50.17;;
22268;SDS011;11303;50.772;19.670;2023-01-08T06:58:53;232.50;;;43.47;;
22268;SDS011;11303;50.772;19.670;2023-01-08T07:00:54;246.63;;;44.75;;
22268;SDS011;11303;50.772;19.670;2023-01-08T07:02:56;257.27;;;44.13;;
22268;SDS011;11303;50.772;19.670;2023-01-08T07:04:58;145.98;;;29.42;;
22268;SDS011;11303;50.772;19.670;2023-01-08T07:06:59;126.55;;;26.45;;
22268;SDS011;11303;50.772;19.670;2023-01-08T07:09:01;160.48;;;31.00;;
22268;SDS011;11303;50.772;19.670;2023-01-08T07:11:02;189.18;;;37.42;;
22268;SDS011;11303;50.772;19.670;2023-01-08T07:13:04;176.90;;;36.85;;
22268;SDS011;11303;50.772;19.670;2023-01-08T07:15:08;68.82;;;18.63;;
22268;SDS011;11303;50.772;19.670;2023-01-08T07:17:09;54.42;;;14.48;;
22268;SDS011;11303;50.772;19.670;2023-01-08T07:19:11;145.57;;;30.65;;
22268;SDS011;11303;50.772;19.670;2023-01-08T07:21:13;76.85;;;18.23;;
22268;SDS011;11303;50.772;19.670;2023-01-08T07:23:16;149.90;;;33.42;;
22268;SDS011;11303;50.772;19.670;2023-01-08T07:25:18;196.88;;;41.75;;
22268;SDS011;11303;50.772;19.670;2023-01-08T07:27:19;117.25;;;25.90;;
22268;SDS011;11303;50.772;19.670;2023-01-08T07:29:31;173.25;;;39.35;;
22268;SDS011;11303;50.772;19.670;2023-01-08T07:31:32;143.98;;;28.90;;
22268;SDS011;11303;50.772;19.670;2023-01-08T07:33:36;119.60;;;29.00;;
22268;SDS011;11303;50.772;19.670;2023-01-08T07:35:38;98.95;;;24.33;;
22268;SDS011;11303;50.772;19.670;2023-01-08T07:37:40;143.10;;;34.05;;
22268;SDS011;11303;50.772;19.670;2023-01-08T07:39:42;119.63;;;28.67;;
22268;SDS011;11303;50.772;19.670;2023-01-08T07:41:52;128.70;;;29.73;;
22268;SDS011;11303;50.772;19.670;2023-01-08T07:43:54;105.07;;;24.17;;
22268;SDS011;11303;50.772;19.670;2023-01-08T07:45:56;60.78;;;16.02;;
22268;SDS011;11303;50.772;19.670;2023-01-08T07:47:58;89.38;;;23.23;;
22268;SDS011;11303;50.772;19.670;2023-01-08T07:50:00;94.35;;;22.73;;
22268;SDS011;11303;50.772;19.670;2023-01-08T07:52:01;111.25;;;27.05;;
22268;SDS011;11303;50.772;19.670;2023-01-08T07:54:03;126.97;;;35.00;;
22268;SDS011;11303;50.772;19.670;2023-01-08T07:56:08;138.20;;;32.42;;
22268;SDS011;11303;50.772;19.670;2023-01-08T07:58:11;148.05;;;36.60;;
22268;SDS011;11303;50.772;19.670;2023-01-08T08:00:14;133.25;;;34.00;;
22268;SDS011;11303;50.772;19.670;2023-01-08T08:02:16;172.68;;;43.17;;
22268;SDS011;11303;50.772;19.670;2023-01-08T08:04:27;145.45;;;35.90;;
22268;SDS011;11303;50.772;19.670;2023-01-08T08:06:50;102.50;;;28.30;;
22268;SDS011;11303;50.772;19.670;2023-01-08T08:08:55;135.80;;;34.40;;
22268;SDS011;11303;50.772;19.670;2023-01-08T08:10:57;117.18;;;28.85;;
22268;SDS011;11303;50.772;19.670;2023-01-08T08:12:59;109.55;;;30.70;;
22268;SDS011;11303;50.772;19.670;2023-01-08T08:15:00;92.90;;;24.58;;
22268;SDS011;11303;50.772;19.670;2023-01-08T08:17:02;80.57;;;21.92;;
22268;SDS011;11303;50.772;19.670;2023-01-08T08:19:03;122.72;;;32.20;;
22268;SDS011;11303;50.772;19.670;2023-01-08T08:21:05;80.88;;;23.55;;
22268;SDS011;11303;50.772;19.670;2023-01-08T08:23:08;118.32;;;31.45;;
22268;SDS011;11303;50.772;19.670;2023-01-08T08:25:13;90.50;;;25.27;;
22268;SDS011;11303;50.772;19.670;2023-01-08T08:27:15;109.78;;;31.17;;
22268;SDS011;11303;50.772;19.670;2023-01-08T08:29:17;91.35;;;27.65;;
22268;SDS011;11303;50.772;19.670;2023-01-08T08:31:27;125.80;;;39.28;;
22268;SDS011;11303;50.772;19.670;2023-01-08T08:33:29;145.00;;;47.53;;
22268;SDS011;11303;50.772;19.670;2023-01-08T08:35:57;72.65;;;24.77;;
22268;SDS011;11303;50.772;19.670;2023-01-08T08:37:59;81.82;;;29.38;;
22268;SDS011;11303;50.772;19.670;2023-01-08T08:40:01;80.82;;;28.33;;
22268;SDS011;11303;50.772;19.670;2023-01-08T08:42:03;86.57;;;31.23;;
22268;SDS011;11303;50.772;19.670;2023-01-08T08:44:04;88.18;;;30.33;;
22268;SDS011;11303;50.772;19.670;2023-01-08T08:46:06;97.82;;;34.60;;
22268;SDS011;11303;50.772;19.670;2023-01-08T08:48:08;86.38;;;28.75;;
22268;SDS011;11303;50.772;19.670;2023-01-08T08:50:09;80.05;;;28.05;;
22268;SDS011;11303;50.772;19.670;2023-01-08T08:52:11;94.13;;;31.05;;
22268;SDS011;11303;50.772;19.670;2023-01-08T08:54:13;93.65;;;31.45;;
22268;SDS011;11303;50.772;19.670;2023-01-08T08:56:14;100.25;;;35.65;;
22268;SDS011;11303;50.772;19.670;2023-01-08T08:58:16;85.72;;;29.85;;
22268;SDS011;11303;50.772;19.670;2023-01-08T09:00:32;72.80;;;29.02;;
22268;SDS011;11303;50.772;19.670;2023-01-08T09:02:43;68.20;;;25.33;;
22268;SDS011;11303;50.772;19.670;2023-01-08T09:04:45;84.18;;;32.05;;
22268;SDS011;11303;50.772;19.670;2023-01-08T09:06:46;49.58;;;22.15;;
22268;SDS011;11303;50.772;19.670;2023-01-08T09:08:48;46.80;;;18.67;;
22268;SDS011;11303;50.772;19.670;2023-01-08T09:10:52;71.05;;;30.95;;
22268;SDS011;11303;50.772;19.670;2023-01-08T09:12:54;140.13;;;67.25;;
22268;SDS011;11303;50.772;19.670;2023-01-08T09:15:10;106.20;;;46.35;;
22268;SDS011;11303;50.772;19.670;2023-01-08T09:17:22;82.15;;;34.92;;
22268;SDS011;11303;50.772;19.670;2023-01-08T09:19:26;201.93;;;101.57;;
22268;SDS011;11303;50.772;19.670;2023-01-08T09:21:27;121.45;;;59.03;;
22268;SDS011;11303;50.772;19.670;2023-01-08T09:23:29;398.30;;;187.05;;
22268;SDS011;11303;50.772;19.670;2023-01-08T09:25:30;78.32;;;35.55;;
22268;SDS011;11303;50.772;19.670;2023-01-08T09:27:44;100.07;;;41.50;;
22268;SDS011;11303;50.772;19.670;2023-01-08T09:29:46;271.40;;;121.80;;
22268;SDS011;11303;50.772;19.670;2023-01-08T09:32:15;336.10;;;152.30;;
22268;SDS011;11303;50.772;19.670;2023-01-08T09:34:17;217.57;;;99.57;;
22268;SDS011;11303;50.772;19.670;2023-01-08T09:36:19;162.85;;;76.72;;
22268;SDS011;11303;50.772;19.670;2023-01-08T09:38:20;203.27;;;83.80;;
22268;SDS011;11303;50.772;19.670;2023-01-08T09:40:23;60.35;;;27.52;;
22268;SDS011;11303;50.772;19.670;2023-01-08T09:42:28;79.65;;;33.58;;
22268;SDS011;11303;50.772;19.670;2023-01-08T09:44:41;52.47;;;20.35;;
22268;SDS011;11303;50.772;19.670;2023-01-08T09:46:49;105.05;;;32.53;;
22268;SDS011;11303;50.772;19.670;2023-01-08T09:48:56;91.00;;;30.45;;
22268;SDS011;11303;50.772;19.670;2023-01-08T09:51:34;127.38;;;43.10;;
22268;SDS011;11303;50.772;19.670;2023-01-08T09:53:41;89.32;;;31.95;;
22268;SDS011;11303;50.772;19.670;2023-01-08T09:55:45;92.70;;;34.03;;
22268;SDS011;11303;50.772;19.670;2023-01-08T10:00:37;142.77;;;45.85;;
22268;SDS011;11303;50.772;19.670;2023-01-08T10:02:39;122.00;;;42.13;;
22268;SDS011;11303;50.772;19.670;2023-01-08T10:04:42;61.00;;;26.20;;
22268;SDS011;11303;50.772;19.670;2023-01-08T10:07:01;84.00;;;36.05;;
22268;SDS011;11303;50.772;19.670;2023-01-08T10:09:16;85.32;;;38.38;;
22268;SDS011;11303;50.772;19.670;2023-01-08T10:11:27;132.60;;;66.93;;
22268;SDS011;11303;50.772;19.670;2023-01-08T10:13:43;89.20;;;44.67;;
22268;SDS011;11303;50.772;19.670;2023-01-08T10:15:54;79.97;;;40.92;;
22268;SDS011;11303;50.772;19.670;2023-01-08T10:18:11;62.10;;;30.65;;
22268;SDS011;11303;50.772;19.670;2023-01-08T10:20:25;75.65;;;27.35;;
22268;SDS011;11303;50.772;19.670;2023-01-08T10:22:27;61.60;;;29.80;;
22268;SDS011;11303;50.772;19.670;2023-01-08T10:24:35;62.90;;;30.58;;
22268;SDS011;11303;50.772;19.670;2023-01-08T10:26:39;42.03;;;18.83;;
22268;SDS011;11303;50.772;19.670;2023-01-08T10:28:41;82.45;;;32.55;;
22268;SDS011;11303;50.772;19.670;2023-01-08T10:30:45;172.25;;;59.05;;
22268;SDS011;11303;50.772;19.670;2023-01-08T10:32:54;33.72;;;18.65;;
22268;SDS011;11303;50.772;19.670;2023-01-08T10:37:43;20.83;;;11.57;;
22268;SDS011;11303;50.772;19.670;2023-01-08T10:39:46;81.63;;;32.38;;
22268;SDS011;11303;50.772;19.670;2023-01-08T10:41:50;18.48;;;11.02;;
22268;SDS011;11303;50.772;19.670;2023-01-08T10:43:55;96.20;;;37.80;;
22268;SDS011;11303;50.772;19.670;2023-01-08T10:46:01;30.90;;;19.90;;
22268;SDS011;11303;50.772;19.670;2023-01-08T10:48:04;43.03;;;20.02;;
22268;SDS011;11303;50.772;19.670;2023-01-08T10:50:12;36.60;;;19.40;;
22268;SDS011;11303;50.772;19.670;2023-01-08T10:52:28;192.98;;;84.55;;
22268;SDS011;11303;50.772;19.670;2023-01-08T10:54:38;18.83;;;12.30;;
22268;SDS011;11303;50.772;19.670;2023-01-08T10:56:41;373.67;;;90.10;;
22268;SDS011;11303;50.772;19.670;2023-01-08T10:58:45;39.30;;;16.15;;
22268;SDS011;11303;50.772;19.670;2023-01-08T11:00:46;21.95;;;12.52;;
22268;SDS011;11303;50.772;19.670;2023-01-08T11:02:48;65.72;;;29.52;;
22268;SDS011;11303;50.772;19.670;2023-01-08T11:04:50;174.25;;;56.42;;
22268;SDS011;11303;50.772;19.670;2023-01-08T11:06:53;90.43;;;33.13;;
22268;SDS011;11303;50.772;19.670;2023-01-08T11:09:03;65.30;;;26.52;;
22268;SDS011;11303;50.772;19.670;2023-01-08T11:11:33;67.05;;;30.48;;
22268;SDS011;11303;50.772;19.670;2023-01-08T11:13:39;32.50;;;20.80;;
22268;SDS011;11303;50.772;19.670;2023-01-08T11:15:41;23.38;;;13.40;;
22268;SDS011;11303;50.772;19.670;2023-01-08T11:17:44;29.30;;;17.23;;
22268;SDS011;11303;50.772;19.670;2023-01-08T11:19:46;31.27;;;19.00;;
22268;SDS011;11303;50.772;19.670;2023-01-08T11:22:22;32.30;;;19.30;;
22268;SDS011;11303;50.772;19.670;2023-01-08T11:24:26;58.00;;;23.13;;
22268;SDS011;11303;50.772;19.670;2023-01-08T11:26:31;44.15;;;22.83;;
22268;SDS011;11303;50.772;19.670;2023-01-08T11:28:41;37.08;;;20.85;;
22268;SDS011;11303;50.772;19.670;2023-01-08T11:31:10;31.17;;;17.20;;
22268;SDS011;11303;50.772;19.670;2023-01-08T11:33:17;48.53;;;26.45;;
22268;SDS011;11303;50.772;19.670;2023-01-08T11:37:35;33.08;;;20.58;;
22268;SDS011;11303;50.772;19.670;2023-01-08T11:39:39;36.45;;;20.35;;
22268;SDS011;11303;50.772;19.670;2023-01-08T11:44:09;35.15;;;19.83;;
22268;SDS011;11303;50.772;19.670;2023-01-08T11:46:32;31.83;;;18.80;;
22268;SDS011;11303;50.772;19.670;2023-01-08T11:56:00;34.08;;;19.73;;
22268;SDS011;11303;50.772;19.670;2023-01-08T11:58:18;66.53;;;30.42;;
22268;SDS011;11303;50.772;19.670;2023-01-08T12:14:56;37.88;;;19.70;;
22268;SDS011;11303;50.772;19.670;2023-01-08T12:22:16;39.80;;;20.45;;
22268;SDS011;11303;50.772;19.670;2023-01-08T12:27:15;28.48;;;18.50;;
22268;SDS011;11303;50.772;19.670;2023-01-08T12:37:07;37.30;;;21.77;;
22268;SDS011;11303;50.772;19.670;2023-01-08T12:39:29;34.25;;;19.30;;
22268;SDS011;11303;50.772;19.670;2023-01-08T12:41:38;25.95;;;17.33;;
22268;SDS011;11303;50.772;19.670;2023-01-08T12:46:01;24.80;;;14.95;;
22268;SDS011;11303;50.772;19.670;2023-01-08T12:48:06;31.08;;;18.30;;
22268;SDS011;11303;50.772;19.670;2023-01-08T12:52:54;31.73;;;17.35;;
22268;SDS011;11303;50.772;19.670;2023-01-08T12:55:02;25.42;;;15.27;;
22268;SDS011;11303;50.772;19.670;2023-01-08T13:01:48;36.97;;;20.20;;
22268;SDS011;11303;50.772;19.670;2023-01-08T13:03:57;29.95;;;17.27;;